createdAt,value
2019-02-23T00:02:15.135Z,100989.58
2019-02-23T00:04:41.906Z,100989.86
2019-02-23T00:07:08.782Z,100996.22
2019-02-23T00:09:35.526Z,100997.59
2019-02-23T00:12:04.564Z,101013.27
2019-02-23T00:14:30.968Z,101013.47
2019-02-23T00:16:58.192Z,101019.83
2019-02-23T00:19:25.367Z,101018.57
2019-02-23T00:21:52.698Z,101022.20
2019-02-23T00:24:19.468Z,101017.01
2019-02-23T00:26:46.256Z,101008.52
2019-02-23T00:29:12.999Z,101014.00
2019-02-23T00:31:39.770Z,101007.09
2019-02-23T00:34:06.527Z,100993.22
2019-02-23T00:36:33.264Z,101006.09
2019-02-23T00:39:00.478Z,101009.14
2019-02-23T00:41:27.194Z,101010.36
2019-02-23T00:43:54.280Z,101008.46
2019-02-23T00:46:21.005Z,101012.65
2019-02-23T00:48:47.718Z,101007.82
2019-02-23T00:51:14.437Z,101007.00
2019-02-23T00:53:41.160Z,101017.33
2019-02-23T00:56:08.479Z,101012.99
2019-02-23T00:58:38.355Z,101012.99
2019-02-23T01:01:05.089Z,101010.89
2019-02-23T01:03:31.795Z,101015.56
2019-02-23T01:05:58.546Z,101024.36
2019-02-23T01:08:25.345Z,101018.33
2019-02-23T01:10:58.216Z,101028.06
2019-02-23T01:13:20.822Z,101028.06
2019-02-23T01:15:47.554Z,101016.02
2019-02-23T01:18:16.193Z,101021.97
2019-02-23T01:20:43.749Z,101019.42
2019-02-23T01:23:10.496Z,101019.42
2019-02-23T01:25:38.869Z,101012.09
2019-02-23T01:28:05.583Z,101017.33
2019-02-23T01:30:32.695Z,101007.72
2019-02-23T01:32:59.486Z,101009.09
2019-02-23T01:35:26.201Z,101011.39
2019-02-23T01:37:52.935Z,101011.83
2019-02-23T01:40:19.865Z,101011.83
2019-02-23T01:42:49.585Z,101011.75
2019-02-23T01:45:16.297Z,101011.75
2019-02-23T01:47:43.235Z,101015.09
2019-02-23T01:50:10.541Z,101010.44
2019-02-23T01:52:37.275Z,101010.44
2019-02-23T01:55:05.931Z,101000.42
2019-02-23T01:57:32.719Z,101000.42
2019-02-23T01:59:59.437Z,100995.01
2019-02-23T02:02:26.158Z,100995.01
2019-02-23T02:04:52.895Z,101014.46
2019-02-23T02:07:19.634Z,101004.17
2019-02-23T02:09:46.362Z,101004.17
2019-02-23T02:12:14.197Z,101000.88
2019-02-23T02:14:40.923Z,101000.88
2019-02-23T02:17:08.120Z,100998.75
2019-02-23T02:19:35.359Z,101003.92
2019-02-23T02:22:02.422Z,100999.33
2019-02-23T02:24:29.395Z,100999.33
2019-02-23T02:26:56.151Z,101000.28
2019-02-23T02:29:23.079Z,101000.40
2019-02-23T02:31:49.847Z,101000.40
2019-02-23T02:34:16.671Z,101008.46
2019-02-23T02:36:46.434Z,101010.19
2019-02-23T02:39:14.345Z,101010.19
2019-02-23T02:41:41.259Z,101008.80
2019-02-23T02:44:07.975Z,101002.25
2019-02-23T02:46:34.714Z,101001.46
2019-02-23T02:49:01.487Z,101002.19
2019-02-23T02:51:28.234Z,100999.73
2019-02-23T02:53:55.382Z,100994.94
2019-02-23T02:56:22.135Z,100981.36
2019-02-23T02:58:49.079Z,100983.95
2019-02-23T03:01:15.826Z,100986.08
2019-02-23T03:03:42.573Z,100982.79
2019-02-23T03:06:10.483Z,100984.88
2019-02-23T03:08:37.216Z,100983.23
2019-02-23T03:11:03.914Z,100990.16
2019-02-23T03:13:30.666Z,100980.16
2019-02-23T03:15:57.399Z,100980.16
2019-02-23T03:18:26.737Z,100987.20
2019-02-23T03:20:53.537Z,100995.17
2019-02-23T03:23:20.560Z,100995.17
2019-02-23T03:25:47.396Z,100990.91
2019-02-23T03:28:14.165Z,100984.28
2019-02-23T03:30:41.307Z,100982.27
2019-02-23T03:33:08.065Z,100982.27
2019-02-23T03:35:34.783Z,100982.60
2019-02-23T03:38:01.643Z,100983.77
2019-02-23T03:40:28.350Z,100982.45
2019-02-23T03:42:56.180Z,100985.75
2019-02-23T03:45:23.041Z,100978.14
2019-02-23T03:47:49.796Z,100983.05
2019-02-23T03:50:16.571Z,100983.89
2019-02-23T03:52:43.310Z,100987.30
2019-02-23T03:55:10.033Z,100977.02
2019-02-23T03:57:37.079Z,100977.02
2019-02-23T04:00:05.531Z,100962.53
2019-02-23T04:02:32.270Z,100975.86
2019-02-23T04:04:58.996Z,100975.86
2019-02-23T04:07:25.714Z,100979.67
2019-02-23T04:09:55.221Z,100974.46
2019-02-23T04:12:21.935Z,100974.46
2019-02-23T04:14:48.660Z,100984.69
2019-02-23T04:17:15.708Z,100968.92
2019-02-23T04:19:42.428Z,100995.28
2019-02-23T04:22:10.214Z,100987.14
2019-02-23T04:24:36.958Z,100998.72
2019-02-23T04:27:05.600Z,100989.61
2019-02-23T04:29:32.648Z,100987.05
2019-02-23T04:31:59.412Z,100848.16
2019-02-23T04:34:26.345Z,100848.16
2019-02-23T04:36:53.072Z,100968.62
2019-02-23T04:39:19.956Z,100958.18
2019-02-23T04:41:46.682Z,100954.38
2019-02-23T04:44:13.461Z,100964.11
2019-02-23T04:46:40.212Z,100966.23
2019-02-23T04:49:07.027Z,100962.95
2019-02-23T04:51:33.759Z,100962.95
2019-02-23T04:54:00.494Z,100946.20
2019-02-23T04:56:27.196Z,100946.20
2019-02-23T04:58:53.923Z,100960.16
2019-02-23T05:01:22.494Z,100971.78
2019-02-23T05:03:49.220Z,100974.70
2019-02-23T05:06:15.917Z,100974.70
2019-02-23T05:08:42.801Z,100977.89
2019-02-23T05:11:09.524Z,100962.55
2019-02-23T05:13:36.262Z,100960.64
2019-02-23T05:16:02.988Z,100965.72
2019-02-23T05:18:29.706Z,100965.72
2019-02-23T05:20:56.437Z,100951.81
2019-02-23T05:23:23.154Z,100955.52
2019-02-23T05:25:49.927Z,100954.88
2019-02-23T05:28:16.700Z,100954.72
2019-02-23T05:30:43.398Z,100954.72
2019-02-23T05:33:10.140Z,100955.51
2019-02-23T05:35:36.850Z,100955.51
2019-02-23T05:38:06.358Z,100960.39
2019-02-23T05:40:34.976Z,100957.19
2019-02-23T05:43:03.228Z,100962.58
2019-02-23T05:45:29.960Z,100956.28
2019-02-23T05:47:56.892Z,100957.58
2019-02-23T05:50:23.666Z,100960.20
2019-02-23T05:52:50.533Z,100960.20
2019-02-23T05:55:17.292Z,100954.53
2019-02-23T05:57:44.034Z,100954.53
2019-02-23T06:00:11.120Z,100960.73
2019-02-23T06:02:37.888Z,100960.73
2019-02-23T06:05:04.692Z,100959.37
2019-02-23T06:07:31.454Z,100959.97
2019-02-23T06:09:58.352Z,100972.09
2019-02-23T06:12:25.086Z,100972.09
2019-02-23T06:14:52.249Z,100970.73
2019-02-23T06:17:19.013Z,100962.63
2019-02-23T06:19:45.750Z,100962.63
2019-02-23T06:22:12.608Z,100965.00
2019-02-23T06:24:39.367Z,100969.61
2019-02-23T06:27:06.087Z,100967.67
2019-02-23T06:29:33.210Z,100969.28
2019-02-23T06:31:59.960Z,100969.47
2019-02-23T06:34:28.865Z,100968.94
2019-02-23T06:36:55.848Z,100968.94
2019-02-23T06:39:22.978Z,100973.45
2019-02-23T06:41:50.015Z,100970.20
2019-02-23T06:44:17.074Z,100976.04
2019-02-23T06:46:43.856Z,100968.08
2019-02-23T06:49:10.602Z,100968.08
2019-02-23T06:51:37.362Z,100968.80
2019-02-23T06:54:04.190Z,100968.80
2019-02-23T06:56:30.900Z,100986.59
2019-02-23T06:58:57.637Z,100984.46
2019-02-23T07:01:24.480Z,100987.08
2019-02-23T07:03:51.224Z,100987.08
2019-02-23T07:06:17.985Z,100987.65
2019-02-23T07:08:44.702Z,100982.07
2019-02-23T07:11:11.446Z,100982.07
2019-02-23T07:13:38.176Z,100977.72
2019-02-23T07:16:04.951Z,100976.70
2019-02-23T07:18:31.704Z,100980.44
2019-02-23T07:20:58.445Z,100980.44
2019-02-23T07:23:25.355Z,100990.77
2019-02-23T07:25:52.091Z,100990.77
2019-02-23T07:28:18.867Z,100997.01
2019-02-23T07:30:45.619Z,100997.68
2019-02-23T07:33:12.351Z,100997.86
2019-02-23T07:35:39.072Z,100997.86
2019-02-23T07:38:05.843Z,101005.64
2019-02-23T07:40:32.598Z,101005.64
2019-02-23T07:42:59.455Z,101016.13
2019-02-23T07:45:26.196Z,101019.98
2019-02-23T07:47:52.936Z,101019.98
2019-02-23T07:50:19.779Z,101021.44
2019-02-23T07:52:46.873Z,101001.34
2019-02-23T07:55:13.763Z,101017.66
2019-02-23T07:57:40.497Z,101004.71
2019-02-23T08:00:08.258Z,101021.36
2019-02-23T08:02:34.980Z,101016.55
2019-02-23T08:05:01.757Z,101028.30
2019-02-23T08:07:28.455Z,101012.52
2019-02-23T08:09:57.695Z,101021.61
2019-02-23T08:12:24.744Z,101025.36
2019-02-23T08:14:51.484Z,101032.22
2019-02-23T08:17:18.498Z,101021.34
2019-02-23T08:19:45.218Z,101021.34
2019-02-23T08:22:12.048Z,101029.11
2019-02-23T08:24:38.764Z,101026.16
2019-02-23T08:27:05.542Z,101025.95
2019-02-23T08:29:32.285Z,101033.67
2019-02-23T08:31:59.509Z,101033.24
2019-02-23T08:34:26.271Z,101035.85
2019-02-23T08:36:56.292Z,101035.85
2019-02-23T08:39:23.062Z,101025.81
2019-02-23T08:41:51.239Z,101024.24
2019-02-23T08:44:17.992Z,101034.05
2019-02-23T08:46:44.749Z,101034.05
2019-02-23T08:49:11.621Z,101026.39
2019-02-23T08:51:38.760Z,101034.36
2019-02-23T08:54:10.507Z,101032.70
2019-02-23T08:56:48.388Z,101032.70
2019-02-23T08:59:25.593Z,101028.90
2019-02-23T09:01:56.533Z,101010.13
2019-02-23T09:04:26.222Z,101012.16
2019-02-23T09:06:56.233Z,101016.77
2019-02-23T09:09:28.276Z,101016.77
2019-02-23T09:11:55.056Z,101017.38
2019-02-23T09:14:21.833Z,101013.81
2019-02-23T09:16:50.096Z,101011.50
2019-02-23T09:19:18.255Z,101010.81
2019-02-23T09:21:44.995Z,101000.94
2019-02-23T09:24:11.747Z,101000.42
2019-02-23T09:26:38.889Z,100995.75
2019-02-23T09:29:05.643Z,101000.66
2019-02-23T09:31:32.397Z,100992.33
2019-02-23T09:33:59.141Z,100997.98
2019-02-23T09:36:25.873Z,100996.55
2019-02-23T09:38:52.876Z,100993.17
2019-02-23T09:41:19.751Z,100998.81
2019-02-23T09:43:46.487Z,100998.61
2019-02-23T09:46:13.246Z,101004.23
2019-02-23T09:48:39.948Z,101004.18
2019-02-23T09:51:06.717Z,101010.48
2019-02-23T09:53:33.448Z,101001.41
2019-02-23T09:56:00.617Z,101013.50
2019-02-23T09:58:27.385Z,101008.98
2019-02-23T10:00:54.113Z,101007.70
2019-02-23T10:03:24.197Z,101011.31
2019-02-23T10:05:50.914Z,101003.17
2019-02-23T10:08:17.845Z,101012.78
2019-02-23T10:10:44.595Z,101007.59
2019-02-23T10:13:11.370Z,101014.18
2019-02-23T10:15:38.111Z,101010.97
2019-02-23T10:18:05.176Z,101010.44
2019-02-23T10:20:31.899Z,101011.26
2019-02-23T10:22:59.378Z,101008.04
2019-02-23T10:25:26.097Z,101023.43
2019-02-23T10:27:52.870Z,100994.88
2019-02-23T10:30:19.584Z,100994.30
2019-02-23T10:32:46.313Z,101004.34
2019-02-23T10:35:14.631Z,100995.63
2019-02-23T10:37:41.422Z,101001.10
2019-02-23T10:40:10.790Z,101005.36
2019-02-23T10:42:37.541Z,101004.27
2019-02-23T10:45:05.647Z,100999.70
2019-02-23T10:47:32.415Z,100985.83
2019-02-23T10:49:59.180Z,100988.88
2019-02-23T10:52:25.949Z,100990.92
2019-02-23T10:54:52.689Z,100980.17
2019-02-23T10:57:19.773Z,100979.56
2019-02-23T10:59:46.702Z,100987.91
2019-02-23T11:02:13.568Z,100976.14
2019-02-23T11:04:40.289Z,100988.22
2019-02-23T11:07:07.198Z,100965.20
2019-02-23T11:09:36.239Z,100956.88
2019-02-23T11:12:03.109Z,100963.27
2019-02-23T11:14:31.146Z,100995.31
2019-02-23T11:16:58.883Z,100961.42
2019-02-23T11:19:25.637Z,100959.99
2019-02-23T11:21:52.384Z,100960.69
2019-02-23T11:24:19.212Z,100950.42
2019-02-23T11:26:46.010Z,100946.48
2019-02-23T11:29:12.873Z,100948.42
2019-02-23T11:31:40.390Z,100949.34
2019-02-23T11:34:07.512Z,100955.00
2019-02-23T11:36:34.238Z,100961.20
2019-02-23T11:39:00.978Z,100962.00
2019-02-23T11:41:27.695Z,100973.75
2019-02-23T11:43:54.605Z,100972.09
2019-02-23T11:46:21.337Z,100976.12
2019-02-23T11:48:48.149Z,100982.20
2019-02-23T11:51:14.917Z,100990.48
2019-02-23T11:53:41.885Z,100992.18
2019-02-23T11:56:10.525Z,100993.75
2019-02-23T11:58:37.229Z,100996.39
2019-02-23T12:01:04.020Z,100992.81
2019-02-23T12:03:30.780Z,100998.20
2019-02-23T12:05:57.790Z,100985.68
2019-02-23T12:08:24.656Z,100983.41
2019-02-23T12:10:51.403Z,100987.44
2019-02-23T12:13:21.093Z,100985.20
2019-02-23T12:15:48.976Z,100985.89
2019-02-23T12:18:15.731Z,100988.72
2019-02-23T12:20:42.454Z,100984.12
2019-02-23T12:23:09.203Z,100978.83
2019-02-23T12:25:35.930Z,100980.47
2019-02-23T12:28:02.676Z,100973.22
2019-02-23T12:30:29.411Z,100960.59
2019-02-23T12:32:56.177Z,100967.52
2019-02-23T12:35:23.096Z,100961.77
2019-02-23T12:37:49.821Z,100963.27
2019-02-23T12:40:16.655Z,100958.95
2019-02-23T12:42:43.398Z,100955.64
2019-02-23T12:45:10.149Z,100952.56
2019-02-23T12:47:36.923Z,100953.69
2019-02-23T12:50:04.793Z,100949.60
2019-02-23T12:52:31.644Z,100952.77
2019-02-23T12:54:58.402Z,100955.05
2019-02-23T12:57:25.137Z,100935.41
2019-02-23T12:59:51.939Z,100927.97
2019-02-23T13:02:20.280Z,100932.68
2019-02-23T13:04:47.380Z,100912.27
2019-02-23T13:07:14.107Z,100905.72
2019-02-23T13:09:48.263Z,100924.44
2019-02-23T13:12:25.986Z,100897.61
2019-02-23T13:15:00.317Z,100908.45
2019-02-23T13:17:54.466Z,100903.33
2019-02-23T13:21:03.181Z,100897.02
2019-02-23T13:23:52.234Z,100897.48
2019-02-23T13:26:55.500Z,100880.87
2019-02-23T13:29:53.831Z,100899.20
2019-02-23T13:32:43.025Z,100901.39
2019-02-23T13:35:31.647Z,100891.08
2019-02-23T13:38:24.690Z,100890.03
2019-02-23T13:41:00.782Z,100890.27
2019-02-23T13:44:23.978Z,100885.09
2019-02-23T13:47:16.044Z,100890.78
2019-02-23T13:50:15.010Z,100911.00
2019-02-23T13:53:21.194Z,100874.77
2019-02-23T13:56:38.124Z,100876.23
2019-02-23T13:59:40.242Z,100881.11
2019-02-23T14:02:43.690Z,100867.45
2019-02-23T14:05:23.464Z,100861.73
2019-02-23T14:08:45.158Z,100851.23
2019-02-23T14:11:27.345Z,100851.83
2019-02-23T14:14:25.751Z,100845.17
2019-02-23T14:17:03.575Z,100876.57
2019-02-23T14:20:22.370Z,100846.33
2019-02-23T14:23:46.129Z,100843.48
2019-02-23T14:26:31.509Z,100849.95
2019-02-23T14:29:36.924Z,100841.25
2019-02-23T14:32:47.039Z,100851.03
2019-02-23T14:36:06.980Z,100848.53
2019-02-23T14:39:25.195Z,100854.50
2019-02-23T14:42:17.081Z,100856.92
2019-02-23T14:45:10.628Z,100860.97
2019-02-23T14:48:03.178Z,100877.75
2019-02-23T14:51:14.451Z,100864.46
2019-02-23T14:53:59.337Z,100863.52
2019-02-23T14:56:52.538Z,100867.71
2019-02-23T14:59:48.215Z,100865.95
2019-02-23T15:02:47.639Z,100860.77
2019-02-23T15:05:39.952Z,100862.84
2019-02-23T15:08:45.536Z,100861.64
2019-02-23T15:11:57.072Z,100859.97
2019-02-23T15:15:00.365Z,100867.50
2019-02-23T15:17:40.621Z,100869.16
2019-02-23T15:20:51.141Z,100856.80
2019-02-23T15:23:39.839Z,100859.87
2019-02-23T15:26:44.502Z,100864.55
2019-02-23T15:29:41.503Z,100860.83
2019-02-23T15:33:08.658Z,100865.97
2019-02-23T15:36:13.736Z,100870.13
2019-02-23T15:38:57.638Z,100872.72
2019-02-23T15:42:20.885Z,100868.59
2019-02-23T15:45:20.132Z,100867.20
2019-02-23T15:48:15.423Z,100867.72
2019-02-23T15:50:42.205Z,100878.38
2019-02-23T15:53:09.204Z,100873.31
2019-02-23T15:55:36.494Z,100872.33
2019-02-23T15:58:03.826Z,100872.19
2019-02-23T16:00:30.608Z,100872.31
2019-02-23T16:02:57.579Z,100869.34
2019-02-23T16:05:25.753Z,100871.94
2019-02-23T16:07:53.059Z,100870.53
2019-02-23T16:10:20.293Z,100869.06
2019-02-23T16:12:47.858Z,100872.55
2019-02-23T16:15:14.581Z,100862.00
2019-02-23T16:17:42.885Z,100858.91
2019-02-23T16:20:10.100Z,100908.89
2019-02-23T16:22:36.896Z,100863.97
2019-02-23T16:25:19.519Z,100862.05
2019-02-23T16:27:46.682Z,100859.13
2019-02-23T16:30:13.537Z,100860.41
2019-02-23T16:32:40.322Z,100860.22
2019-02-23T16:35:09.818Z,100885.45
2019-02-23T16:37:37.207Z,100876.67
2019-02-23T16:40:04.108Z,100875.23
2019-02-23T16:42:30.836Z,100873.69
2019-02-23T16:44:57.599Z,100874.37
2019-02-23T16:47:24.347Z,100882.89
2019-02-23T16:49:57.053Z,100875.73
2019-02-23T16:52:23.757Z,100874.48
2019-02-23T16:54:50.651Z,100911.40
2019-02-23T16:57:17.733Z,100883.27
2019-02-23T16:59:44.851Z,100878.80
2019-02-23T17:02:14.535Z,100891.41
2019-02-23T17:04:53.184Z,100897.31
2019-02-23T17:07:10.569Z,100893.58
2019-02-23T17:09:37.983Z,100883.14
2019-02-23T17:12:04.940Z,100927.61
2019-02-23T17:14:33.539Z,100882.74
2019-02-23T17:17:04.485Z,100876.38
2019-02-23T17:19:31.435Z,100876.70
2019-02-23T17:22:10.772Z,100894.17
2019-02-23T17:24:38.492Z,100885.53
2019-02-23T17:27:05.520Z,100883.09
2019-02-23T17:29:32.925Z,100906.66
2019-02-23T17:32:02.233Z,100883.83
2019-02-23T17:34:31.941Z,100886.79
2019-02-23T17:36:58.662Z,100897.55
2019-02-23T17:39:29.421Z,100889.19
2019-02-23T17:42:07.944Z,100902.91
2019-02-23T17:44:34.695Z,100890.84
2019-02-23T17:47:03.462Z,100898.86
2019-02-23T17:49:30.187Z,100913.86
2019-02-23T17:51:57.369Z,100894.19
2019-02-23T17:54:24.381Z,100904.95
2019-02-23T17:56:51.126Z,100899.46
2019-02-23T17:59:21.050Z,100904.63
2019-02-23T18:01:47.788Z,100917.58
2019-02-23T18:04:14.519Z,100909.59
2019-02-23T18:06:44.138Z,100904.70
2019-02-23T18:09:13.668Z,100903.67
2019-02-23T18:11:41.917Z,100930.34
2019-02-23T18:14:10.760Z,100920.89
2019-02-23T18:16:42.072Z,100911.67
2019-02-23T18:19:08.805Z,100941.67
2019-02-23T18:21:35.574Z,100920.16
2019-02-23T18:24:02.696Z,100921.57
2019-02-23T18:26:29.528Z,100927.02
2019-02-23T18:28:56.531Z,100922.14
2019-02-23T18:31:23.252Z,100960.30
2019-02-23T18:33:50.363Z,100924.73
2019-02-23T18:36:17.133Z,100922.89
2019-02-23T18:38:44.391Z,100926.43
2019-02-23T18:41:11.133Z,100946.91
2019-02-23T18:43:41.629Z,100928.85
2019-02-23T18:46:08.575Z,100924.17
2019-02-23T18:48:35.724Z,100926.28
2019-02-23T18:51:02.881Z,100923.27
2019-02-23T18:53:29.602Z,100950.79
2019-02-23T18:55:56.318Z,100920.70
2019-02-23T18:58:23.046Z,100927.83
2019-02-23T19:00:49.809Z,100923.72
2019-02-23T19:03:16.592Z,100924.02
2019-02-23T19:05:49.741Z,100915.75
2019-02-23T19:08:12.252Z,100921.91
2019-02-23T19:10:40.037Z,100925.03
2019-02-23T19:13:08.475Z,100922.70
2019-02-23T19:15:35.451Z,100913.94
2019-02-23T19:18:02.215Z,100929.89
2019-02-23T19:20:28.977Z,100922.70
2019-02-23T19:22:57.652Z,100921.34
2019-02-23T19:25:24.398Z,100922.20
2019-02-23T19:27:51.182Z,100923.23
2019-02-23T19:30:18.076Z,100921.91
2019-02-23T19:32:44.824Z,100917.48
2019-02-23T19:35:11.542Z,100915.10
2019-02-23T19:37:38.457Z,100916.86
2019-02-23T19:40:08.443Z,100918.13
2019-02-23T19:42:35.208Z,100919.33
2019-02-23T19:45:01.996Z,100925.97
2019-02-23T19:47:33.253Z,100936.41
2019-02-23T19:50:06.281Z,100929.55
2019-02-23T19:52:34.506Z,100934.89
2019-02-23T19:55:01.258Z,100931.47
2019-02-23T19:57:28.003Z,100934.34
2019-02-23T19:59:54.930Z,100930.35
2019-02-23T20:02:21.688Z,100933.88
2019-02-23T20:04:48.542Z,100932.12
2019-02-23T20:07:15.659Z,100927.28
2019-02-23T20:09:42.426Z,100931.24
2019-02-23T20:12:09.447Z,100931.24
2019-02-23T20:14:36.240Z,100928.62
2019-02-23T20:17:02.989Z,100928.56
2019-02-23T20:19:29.965Z,100935.83
2019-02-23T20:21:56.750Z,100932.14
2019-02-23T20:24:23.509Z,100931.48
2019-02-23T20:26:55.711Z,100925.05
2019-02-23T20:29:19.052Z,100928.52
2019-02-23T20:31:45.998Z,100930.39
2019-02-23T20:34:12.865Z,100925.43
2019-02-23T20:36:39.735Z,100919.75
2019-02-23T20:39:06.538Z,100918.31
2019-02-23T20:41:33.284Z,100916.19
2019-02-23T20:44:02.191Z,100913.26
2019-02-23T20:46:28.971Z,100907.13
2019-02-23T20:48:55.823Z,100903.61
2019-02-23T20:51:22.939Z,100911.60
2019-02-23T20:53:49.738Z,100919.06
2019-02-23T20:56:16.554Z,100908.42
2019-02-23T20:58:43.302Z,100911.80
2019-02-23T21:01:10.056Z,100915.84
2019-02-23T21:03:37.267Z,100917.48
2019-02-23T21:06:03.995Z,100905.11
2019-02-23T21:08:33.336Z,100901.94
2019-02-23T21:11:00.056Z,100916.38
2019-02-23T21:13:27.176Z,100911.10
2019-02-23T21:15:53.936Z,100909.96
2019-02-23T21:18:20.664Z,100915.34
2019-02-23T21:20:47.420Z,100920.39
2019-02-23T21:23:14.498Z,100920.64
2019-02-23T21:25:41.235Z,100920.42
2019-02-23T21:28:07.970Z,100924.41
2019-02-23T21:30:34.787Z,100925.58
2019-02-23T21:33:01.557Z,100926.89
2019-02-23T21:35:30.775Z,100922.58
2019-02-23T21:37:57.574Z,100909.02
2019-02-23T21:40:27.270Z,100909.02
2019-02-23T21:43:02.836Z,100921.27
2019-02-23T21:45:35.193Z,100920.10
2019-02-23T21:48:02.499Z,100915.89
2019-02-23T21:50:29.742Z,100917.63
2019-02-23T21:52:56.458Z,100921.61
2019-02-23T21:55:23.206Z,100910.88
2019-02-23T21:57:49.962Z,100912.63
2019-02-23T22:00:16.740Z,100906.45
2019-02-23T22:02:43.441Z,100903.60
2019-02-23T22:05:12.612Z,100905.59
2019-02-23T22:07:38.927Z,100905.59
2019-02-23T22:10:08.614Z,100917.06
2019-02-23T22:12:35.342Z,100918.47
2019-02-23T22:15:02.343Z,100912.24
2019-02-23T22:17:29.221Z,100910.34
2019-02-23T22:19:55.934Z,100912.73
2019-02-23T22:22:22.704Z,100920.64
2019-02-23T22:24:49.459Z,100920.64
2019-02-23T22:27:16.171Z,100908.07
2019-02-23T22:29:42.940Z,100908.07
2019-02-23T22:32:09.979Z,100918.36
2019-02-23T22:34:36.706Z,100912.88
2019-02-23T22:37:03.439Z,100921.86
2019-02-23T22:39:30.384Z,100922.23
2019-02-23T22:41:57.121Z,100922.23
2019-02-23T22:44:23.856Z,100910.41
2019-02-23T22:46:50.601Z,100908.44
2019-02-23T22:49:17.467Z,100907.92
2019-02-23T22:51:44.630Z,100911.17
2019-02-23T22:54:11.506Z,100916.94
2019-02-23T22:56:38.242Z,100925.09
2019-02-23T22:59:05.078Z,100920.08
2019-02-23T23:01:31.910Z,100916.83
2019-02-23T23:03:58.808Z,100916.83
2019-02-23T23:06:25.995Z,100921.25
2019-02-23T23:08:52.796Z,100918.34
2019-02-23T23:11:19.511Z,100918.34
2019-02-23T23:13:46.315Z,100926.00
2019-02-23T23:16:13.372Z,100926.94
2019-02-23T23:18:40.102Z,100928.36
2019-02-23T23:21:06.852Z,100925.41
2019-02-23T23:23:33.578Z,100925.41
2019-02-23T23:26:00.465Z,100923.05
2019-02-23T23:28:27.217Z,100923.05
2019-02-23T23:30:53.974Z,100922.11
2019-02-23T23:33:21.050Z,100925.77
2019-02-23T23:35:47.792Z,100925.77
2019-02-23T23:38:14.514Z,100924.67
2019-02-23T23:40:41.387Z,100922.21
2019-02-23T23:43:08.455Z,100922.21
2019-02-23T23:45:35.365Z,100920.50
2019-02-23T23:48:02.355Z,100928.72
2019-02-23T23:50:29.163Z,100914.69
2019-02-23T23:52:55.873Z,100914.69
2019-02-23T23:55:22.639Z,100913.38
2019-02-23T23:57:57.827Z,100913.38
